sensor_id;sensor_type;location;lat;lon;timestamp;temperature;humidity
2825;DHT22;1420;51.324;12.344;2023-08-01T00:01:50;18.10;99.90
2825;DHT22;1420;51.324;12.344;2023-08-01T00:04:17;17.90;99.90
2825;DHT22;1420;51.324;12.344;2023-08-01T00:06:44;18.00;99.90
2825;DHT22;1420;51.324;12.344;2023-08-01T00:09:11;18.10;99.90
2825;DHT22;1420;51.324;12.344;2023-08-01T00:11:39;17.90;99.90
2825;DHT22;1420;51.324;12.344;2023-08-01T00:14:06;18.10;99.90
2825;DHT22;1420;51.324;12.344;2023-08-01T00:16:33;18.00;99.90
2825;DHT22;1420;51.324;12.344;2023-08-01T00:19:00;17.80;99.90
2825;DHT22;1420;51.324;12.344;2023-08-01T00:21:28;17.50;99.90
2825;DHT22;1420;51.324;12.344;2023-08-01T00:23:56;17.40;99.90
2825;DHT22;1420;51.324;12.344;2023-08-01T00:26:24;17.50;99.90
2825;DHT22;1420;51.324;12.344;2023-08-01T00:28:52;17.80;99.90
2825;DHT22;1420;51.324;12.344;2023-08-01T00:31:20;17.80;99.90
2825;DHT22;1420;51.324;12.344;2023-08-01T00:33:48;17.60;99.90
2825;DHT22;1420;51.324;12.344;2023-08-01T00:36:16;17.60;99.90
2825;DHT22;1420;51.324;12.344;2023-08-01T00:38:43;17.50;99.90
2825;DHT22;1420;51.324;12.344;2023-08-01T00:41:11;17.40;99.90
2825;DHT22;1420;51.324;12.344;2023-08-01T00:43:38;17.40;99.90
2825;DHT22;1420;51.324;12.344;2023-08-01T00:46:05;17.50;99.90
2825;DHT22;1420;51.324;12.344;2023-08-01T00:48:32;17.50;99.90
2825;DHT22;1420;51.324;12.344;2023-08-01T00:51:01;17.50;99.90
2825;DHT22;1420;51.324;12.344;2023-08-01T00:53:28;18.10;99.90
2825;DHT22;1420;51.324;12.344;2023-08-01T00:55:56;18.10;99.90
2825;DHT22;1420;51.324;12.344;2023-08-01T00:58:24;17.80;99.90
2825;DHT22;1420;51.324;12.344;2023-08-01T01:00:51;17.80;99.90
2825;DHT22;1420;51.324;12.344;2023-08-01T01:03:18;17.80;99.90
2825;DHT22;1420;51.324;12.344;2023-08-01T01:06:09;17.70;99.90
2825;DHT22;1420;51.324;12.344;2023-08-01T01:08:33;17.60;99.90
2825;DHT22;1420;51.324;12.344;2023-08-01T01:11:02;17.70;99.90
2825;DHT22;1420;51.324;12.344;2023-08-01T01:13:30;17.90;99.90
2825;DHT22;1420;51.324;12.344;2023-08-01T01:15:58;17.90;99.90
2825;DHT22;1420;51.324;12.344;2023-08-01T01:18:26;17.90;99.90
2825;DHT22;1420;51.324;12.344;2023-08-01T01:20:54;17.80;99.90
2825;DHT22;1420;51.324;12.344;2023-08-01T01:23:22;18.00;99.90
2825;DHT22;1420;51.324;12.344;2023-08-01T01:25:50;17.90;99.90
2825;DHT22;1420;51.324;12.344;2023-08-01T01:28:17;17.80;99.90
2825;DHT22;1420;51.324;12.344;2023-08-01T01:30:45;17.90;99.90
2825;DHT22;1420;51.324;12.344;2023-08-01T01:33:13;17.90;99.90
2825;DHT22;1420;51.324;12.344;2023-08-01T01:35:41;18.00;99.90
2825;DHT22;1420;51.324;12.344;2023-08-01T01:38:09;18.00;99.90
2825;DHT22;1420;51.324;12.344;2023-08-01T01:40:36;17.90;99.90
2825;DHT22;1420;51.324;12.344;2023-08-01T01:43:03;18.00;99.90
2825;DHT22;1420;51.324;12.344;2023-08-01T01:45:31;17.70;99.90
2825;DHT22;1420;51.324;12.344;2023-08-01T01:47:58;17.60;99.90
2825;DHT22;1420;51.324;12.344;2023-08-01T01:50:26;17.70;99.90
2825;DHT22;1420;51.324;12.344;2023-08-01T01:52:53;17.70;99.90
2825;DHT22;1420;51.324;12.344;2023-08-01T01:55:20;17.50;99.90
2825;DHT22;1420;51.324;12.344;2023-08-01T01:57:47;17.40;99.90
2825;DHT22;1420;51.324;12.344;2023-08-01T02:00:15;17.30;99.90
2825;DHT22;1420;51.324;12.344;2023-08-01T02:02:42;17.20;99.90
2825;DHT22;1420;51.324;12.344;2023-08-01T02:05:09;17.30;99.90
2825;DHT22;1420;51.324;12.344;2023-08-01T02:07:36;17.30;99.90
2825;DHT22;1420;51.324;12.344;2023-08-01T02:10:03;17.10;99.90
2825;DHT22;1420;51.324;12.344;2023-08-01T02:12:31;17.10;99.90
2825;DHT22;1420;51.324;12.344;2023-08-01T02:14:59;17.00;99.90
2825;DHT22;1420;51.324;12.344;2023-08-01T02:17:27;16.90;99.90
2825;DHT22;1420;51.324;12.344;2023-08-01T02:19:55;16.80;99.90
2825;DHT22;1420;51.324;12.344;2023-08-01T02:22:24;16.90;99.90
2825;DHT22;1420;51.324;12.344;2023-08-01T02:24:51;17.00;99.90
2825;DHT22;1420;51.324;12.344;2023-08-01T02:27:18;17.10;99.90
2825;DHT22;1420;51.324;12.344;2023-08-01T02:29:46;17.10;99.90
2825;DHT22;1420;51.324;12.344;2023-08-01T02:32:14;17.00;99.90
2825;DHT22;1420;51.324;12.344;2023-08-01T02:34:42;17.00;99.90
2825;DHT22;1420;51.324;12.344;2023-08-01T02:37:10;16.90;99.90
2825;DHT22;1420;51.324;12.344;2023-08-01T02:39:37;17.00;99.90
2825;DHT22;1420;51.324;12.344;2023-08-01T02:42:04;17.10;99.90
2825;DHT22;1420;51.324;12.344;2023-08-01T02:44:31;17.10;99.90
2825;DHT22;1420;51.324;12.344;2023-08-01T02:46:58;17.00;99.90
2825;DHT22;1420;51.324;12.344;2023-08-01T02:49:26;17.00;99.90
2825;DHT22;1420;51.324;12.344;2023-08-01T02:51:53;17.20;99.90
2825;DHT22;1420;51.324;12.344;2023-08-01T02:54:20;17.30;99.90
2825;DHT22;1420;51.324;12.344;2023-08-01T02:56:47;17.10;99.90
2825;DHT22;1420;51.324;12.344;2023-08-01T02:59:14;17.00;99.90
2825;DHT22;1420;51.324;12.344;2023-08-01T03:01:42;17.10;99.90
2825;DHT22;1420;51.324;12.344;2023-08-01T03:04:10;17.10;99.90
2825;DHT22;1420;51.324;12.344;2023-08-01T03:06:39;17.10;99.90
2825;DHT22;1420;51.324;12.344;2023-08-01T03:09:06;17.10;99.90
2825;DHT22;1420;51.324;12.344;2023-08-01T03:11:36;17.10;99.90
2825;DHT22;1420;51.324;12.344;2023-08-01T03:14:03;17.10;99.90
2825;DHT22;1420;51.324;12.344;2023-08-01T03:16:32;17.10;99.90
2825;DHT22;1420;51.324;12.344;2023-08-01T03:18:59;17.00;99.90
2825;DHT22;1420;51.324;12.344;2023-08-01T03:21:27;16.90;99.90
2825;DHT22;1420;51.324;12.344;2023-08-01T03:23:54;17.00;99.90
2825;DHT22;1420;51.324;12.344;2023-08-01T03:26:21;16.90;99.90
2825;DHT22;1420;51.324;12.344;2023-08-01T03:28:49;17.00;99.90
2825;DHT22;1420;51.324;12.344;2023-08-01T03:31:17;17.10;99.90
2825;DHT22;1420;51.324;12.344;2023-08-01T03:33:45;17.10;99.90
2825;DHT22;1420;51.324;12.344;2023-08-01T03:36:13;17.00;99.90
2825;DHT22;1420;51.324;12.344;2023-08-01T03:38:41;17.10;99.90
2825;DHT22;1420;51.324;12.344;2023-08-01T03:41:09;17.00;99.90
2825;DHT22;1420;51.324;12.344;2023-08-01T03:43:36;17.00;99.90
2825;DHT22;1420;51.324;12.344;2023-08-01T03:46:03;17.10;99.90
2825;DHT22;1420;51.324;12.344;2023-08-01T03:48:31;17.20;99.90
2825;DHT22;1420;51.324;12.344;2023-08-01T03:50:58;17.20;99.90
2825;DHT22;1420;51.324;12.344;2023-08-01T03:53:25;17.20;99.90
2825;DHT22;1420;51.324;12.344;2023-08-01T03:55:52;17.20;99.90
2825;DHT22;1420;51.324;12.344;2023-08-01T03:58:19;17.10;99.90
2825;DHT22;1420;51.324;12.344;2023-08-01T04:00:47;17.00;99.90
2825;DHT22;1420;51.324;12.344;2023-08-01T04:03:14;16.90;99.90
2825;DHT22;1420;51.324;12.344;2023-08-01T04:05:41;16.90;99.90
2825;DHT22;1420;51.324;12.344;2023-08-01T04:08:08;16.80;99.90
2825;DHT22;1420;51.324;12.344;2023-08-01T04:10:35;16.80;99.90
2825;DHT22;1420;51.324;12.344;2023-08-01T04:13:03;16.70;99.90
2825;DHT22;1420;51.324;12.344;2023-08-01T04:15:30;16.90;99.90
2825;DHT22;1420;51.324;12.344;2023-08-01T04:17:57;17.00;99.90
2825;DHT22;1420;51.324;12.344;2023-08-01T04:20:24;16.90;99.90
2825;DHT22;1420;51.324;12.344;2023-08-01T04:22:52;16.90;99.90
2825;DHT22;1420;51.324;12.344;2023-08-01T04:25:20;17.00;99.90
2825;DHT22;1420;51.324;12.344;2023-08-01T04:27:47;17.00;99.90
2825;DHT22;1420;51.324;12.344;2023-08-01T04:30:15;17.20;99.90
2825;DHT22;1420;51.324;12.344;2023-08-01T04:32:43;17.30;99.90
2825;DHT22;1420;51.324;12.344;2023-08-01T04:35:10;17.20;99.90
2825;DHT22;1420;51.324;12.344;2023-08-01T04:37:37;17.10;99.90
2825;DHT22;1420;51.324;12.344;2023-08-01T04:40:05;17.10;99.90
2825;DHT22;1420;51.324;12.344;2023-08-01T04:42:32;17.10;99.90
2825;DHT22;1420;51.324;12.344;2023-08-01T04:45:00;17.00;99.90
2825;DHT22;1420;51.324;12.344;2023-08-01T04:47:28;17.10;99.90
2825;DHT22;1420;51.324;12.344;2023-08-01T04:49:56;17.20;99.90
2825;DHT22;1420;51.324;12.344;2023-08-01T04:52:24;17.10;99.90
2825;DHT22;1420;51.324;12.344;2023-08-01T04:54:51;17.20;99.90
2825;DHT22;1420;51.324;12.344;2023-08-01T04:57:18;17.00;99.90
2825;DHT22;1420;51.324;12.344;2023-08-01T04:59:45;17.10;99.90
2825;DHT22;1420;51.324;12.344;2023-08-01T05:02:12;17.20;99.90
2825;DHT22;1420;51.324;12.344;2023-08-01T05:04:40;17.20;99.90
2825;DHT22;1420;51.324;12.344;2023-08-01T05:07:07;17.10;99.90
2825;DHT22;1420;51.324;12.344;2023-08-01T05:09:34;17.10;99.90
2825;DHT22;1420;51.324;12.344;2023-08-01T05:12:01;17.20;99.90
2825;DHT22;1420;51.324;12.344;2023-08-01T05:14:28;17.20;99.90
2825;DHT22;1420;51.324;12.344;2023-08-01T05:16:56;17.30;99.90
2825;DHT22;1420;51.324;12.344;2023-08-01T05:19:23;17.30;99.90
2825;DHT22;1420;51.324;12.344;2023-08-01T05:21:50;17.30;99.90
2825;DHT22;1420;51.324;12.344;2023-08-01T05:24:17;17.20;99.90
2825;DHT22;1420;51.324;12.344;2023-08-01T05:26:44;17.20;99.90
2825;DHT22;1420;51.324;12.344;2023-08-01T05:29:12;17.10;99.90
2825;DHT22;1420;51.324;12.344;2023-08-01T05:31:39;17.10;99.90
2825;DHT22;1420;51.324;12.344;2023-08-01T05:34:06;17.20;99.90
2825;DHT22;1420;51.324;12.344;2023-08-01T05:36:33;17.20;99.90
2825;DHT22;1420;51.324;12.344;2023-08-01T05:39:01;17.30;99.90
2825;DHT22;1420;51.324;12.344;2023-08-01T05:41:29;17.30;99.90
2825;DHT22;1420;51.324;12.344;2023-08-01T05:43:56;17.30;99.90
2825;DHT22;1420;51.324;12.344;2023-08-01T05:46:23;17.20;99.90
2825;DHT22;1420;51.324;12.344;2023-08-01T05:48:50;17.40;99.90
2825;DHT22;1420;51.324;12.344;2023-08-01T05:51:18;17.90;99.90
2825;DHT22;1420;51.324;12.344;2023-08-01T05:53:46;17.80;99.90
2825;DHT22;1420;51.324;12.344;2023-08-01T05:56:13;17.80;99.90
2825;DHT22;1420;51.324;12.344;2023-08-01T05:58:40;17.70;99.90
2825;DHT22;1420;51.324;12.344;2023-08-01T06:01:10;17.80;99.90
2825;DHT22;1420;51.324;12.344;2023-08-01T06:03:35;17.60;99.90
2825;DHT22;1420;51.324;12.344;2023-08-01T06:06:02;17.50;99.90
2825;DHT22;1420;51.324;12.344;2023-08-01T06:08:29;17.50;99.90
2825;DHT22;1420;51.324;12.344;2023-08-01T06:10:56;17.90;99.90
2825;DHT22;1420;51.324;12.344;2023-08-01T06:13:24;17.90;99.90
2825;DHT22;1420;51.324;12.344;2023-08-01T06:15:51;18.00;99.90
2825;DHT22;1420;51.324;12.344;2023-08-01T06:18:18;17.70;99.90
2825;DHT22;1420;51.324;12.344;2023-08-01T06:20:45;17.70;99.90
2825;DHT22;1420;51.324;12.344;2023-08-01T06:23:13;17.80;99.90
2825;DHT22;1420;51.324;12.344;2023-08-01T06:25:40;17.90;99.90
2825;DHT22;1420;51.324;12.344;2023-08-01T06:28:08;17.90;99.90
2825;DHT22;1420;51.324;12.344;2023-08-01T06:30:35;17.80;99.90
2825;DHT22;1420;51.324;12.344;2023-08-01T06:33:03;18.10;99.90
2825;DHT22;1420;51.324;12.344;2023-08-01T06:35:30;18.00;99.90
2825;DHT22;1420;51.324;12.344;2023-08-01T06:37:57;18.10;99.90
2825;DHT22;1420;51.324;12.344;2023-08-01T06:40:24;18.30;99.90
2825;DHT22;1420;51.324;12.344;2023-08-01T06:42:52;18.10;99.90
2825;DHT22;1420;51.324;12.344;2023-08-01T06:45:19;18.10;99.90
2825;DHT22;1420;51.324;12.344;2023-08-01T06:47:46;18.00;99.90
2825;DHT22;1420;51.324;12.344;2023-08-01T06:50:14;18.10;99.90
2825;DHT22;1420;51.324;12.344;2023-08-01T06:52:41;18.50;99.90
2825;DHT22;1420;51.324;12.344;2023-08-01T06:55:09;18.60;99.90
2825;DHT22;1420;51.324;12.344;2023-08-01T06:57:36;18.50;99.90
2825;DHT22;1420;51.324;12.344;2023-08-01T07:00:03;18.20;99.90
2825;DHT22;1420;51.324;12.344;2023-08-01T07:02:31;18.40;99.90
2825;DHT22;1420;51.324;12.344;2023-08-01T07:04:58;18.20;99.90
2825;DHT22;1420;51.324;12.344;2023-08-01T07:07:25;18.00;99.90
2825;DHT22;1420;51.324;12.344;2023-08-01T07:09:52;18.20;99.90
2825;DHT22;1420;51.324;12.344;2023-08-01T07:12:19;18.30;99.90
2825;DHT22;1420;51.324;12.344;2023-08-01T07:14:47;18.20;99.90
2825;DHT22;1420;51.324;12.344;2023-08-01T07:17:14;18.10;99.90
2825;DHT22;1420;51.324;12.344;2023-08-01T07:19:42;18.50;99.90
2825;DHT22;1420;51.324;12.344;2023-08-01T07:22:09;18.50;99.90
2825;DHT22;1420;51.324;12.344;2023-08-01T07:24:36;18.50;99.90
2825;DHT22;1420;51.324;12.344;2023-08-01T07:27:04;18.20;99.90
2825;DHT22;1420;51.324;12.344;2023-08-01T07:29:31;18.50;99.90
2825;DHT22;1420;51.324;12.344;2023-08-01T07:31:58;18.20;99.90
2825;DHT22;1420;51.324;12.344;2023-08-01T07:34:26;18.10;99.90
2825;DHT22;1420;51.324;12.344;2023-08-01T07:36:53;18.10;99.90
2825;DHT22;1420;51.324;12.344;2023-08-01T07:39:20;18.20;99.90
2825;DHT22;1420;51.324;12.344;2023-08-01T07:41:47;18.10;99.90
2825;DHT22;1420;51.324;12.344;2023-08-01T07:44:14;17.70;99.90
2825;DHT22;1420;51.324;12.344;2023-08-01T07:46:42;17.90;99.90
2825;DHT22;1420;51.324;12.344;2023-08-01T07:49:09;17.60;99.90
2825;DHT22;1420;51.324;12.344;2023-08-01T07:51:36;17.90;99.90
2825;DHT22;1420;51.324;12.344;2023-08-01T07:54:03;17.90;99.90
2825;DHT22;1420;51.324;12.344;2023-08-01T07:56:31;18.00;99.90
2825;DHT22;1420;51.324;12.344;2023-08-01T07:58:59;18.20;99.90
2825;DHT22;1420;51.324;12.344;2023-08-01T08:01:27;18.10;99.90
2825;DHT22;1420;51.324;12.344;2023-08-01T08:03:55;18.10;99.90
2825;DHT22;1420;51.324;12.344;2023-08-01T08:06:22;18.10;99.90
2825;DHT22;1420;51.324;12.344;2023-08-01T08:08:49;18.20;99.90
2825;DHT22;1420;51.324;12.344;2023-08-01T08:11:17;18.30;99.90
2825;DHT22;1420;51.324;12.344;2023-08-01T08:13:44;18.10;99.90
2825;DHT22;1420;51.324;12.344;2023-08-01T08:16:11;18.20;99.90
2825;DHT22;1420;51.324;12.344;2023-08-01T08:18:38;18.10;99.90
2825;DHT22;1420;51.324;12.344;2023-08-01T08:21:05;18.10;99.90
2825;DHT22;1420;51.324;12.344;2023-08-01T08:23:33;18.20;99.90
2825;DHT22;1420;51.324;12.344;2023-08-01T08:26:00;18.00;99.90
2825;DHT22;1420;51.324;12.344;2023-08-01T08:28:28;18.00;99.90
2825;DHT22;1420;51.324;12.344;2023-08-01T08:30:54;18.20;99.90
2825;DHT22;1420;51.324;12.344;2023-08-01T08:33:22;18.40;99.90
2825;DHT22;1420;51.324;12.344;2023-08-01T08:35:49;18.60;99.90
2825;DHT22;1420;51.324;12.344;2023-08-01T08:38:16;18.60;99.90
2825;DHT22;1420;51.324;12.344;2023-08-01T08:40:46;18.70;99.90
2825;DHT22;1420;51.324;12.344;2023-08-01T08:43:10;18.60;99.90
2825;DHT22;1420;51.324;12.344;2023-08-01T08:45:39;18.80;99.90
2825;DHT22;1420;51.324;12.344;2023-08-01T08:48:09;18.90;99.90
2825;DHT22;1420;51.324;12.344;2023-08-01T08:50:34;18.90;99.90
2825;DHT22;1420;51.324;12.344;2023-08-01T08:53:02;18.60;99.90
2825;DHT22;1420;51.324;12.344;2023-08-01T08:55:30;18.40;99.90
2825;DHT22;1420;51.324;12.344;2023-08-01T08:57:58;18.60;99.90
2825;DHT22;1420;51.324;12.344;2023-08-01T09:00:28;18.50;99.90
2825;DHT22;1420;51.324;12.344;2023-08-01T09:02:55;18.50;99.90
2825;DHT22;1420;51.324;12.344;2023-08-01T09:05:24;18.50;99.90
2825;DHT22;1420;51.324;12.344;2023-08-01T09:07:50;18.40;99.90
2825;DHT22;1420;51.324;12.344;2023-08-01T09:10:18;18.60;99.90
2825;DHT22;1420;51.324;12.344;2023-08-01T09:12:45;18.50;99.90
2825;DHT22;1420;51.324;12.344;2023-08-01T09:15:12;18.30;99.90
2825;DHT22;1420;51.324;12.344;2023-08-01T09:17:48;18.50;99.90
2825;DHT22;1420;51.324;12.344;2023-08-01T09:20:14;18.50;99.90
2825;DHT22;1420;51.324;12.344;2023-08-01T09:22:44;18.70;99.90
2825;DHT22;1420;51.324;12.344;2023-08-01T09:25:11;19.00;99.90
2825;DHT22;1420;51.324;12.344;2023-08-01T09:27:39;19.40;99.90
2825;DHT22;1420;51.324;12.344;2023-08-01T09:30:10;19.50;99.90
2825;DHT22;1420;51.324;12.344;2023-08-01T09:32:37;19.40;99.90
2825;DHT22;1420;51.324;12.344;2023-08-01T09:35:04;19.50;99.90
2825;DHT22;1420;51.324;12.344;2023-08-01T09:37:38;19.20;99.90
2825;DHT22;1420;51.324;12.344;2023-08-01T09:40:06;19.70;99.90
2825;DHT22;1420;51.324;12.344;2023-08-01T09:42:39;20.00;99.90
2825;DHT22;1420;51.324;12.344;2023-08-01T09:45:07;19.90;99.90
2825;DHT22;1420;51.324;12.344;2023-08-01T09:47:36;19.70;99.90
2825;DHT22;1420;51.324;12.344;2023-08-01T09:50:03;19.50;99.90
2825;DHT22;1420;51.324;12.344;2023-08-01T09:52:30;19.40;99.90
2825;DHT22;1420;51.324;12.344;2023-08-01T09:54:57;19.10;99.90
2825;DHT22;1420;51.324;12.344;2023-08-01T09:57:25;19.10;99.90
2825;DHT22;1420;51.324;12.344;2023-08-01T09:59:51;19.00;99.90
2825;DHT22;1420;51.324;12.344;2023-08-01T10:02:19;18.80;99.90
2825;DHT22;1420;51.324;12.344;2023-08-01T10:04:46;18.60;99.90
2825;DHT22;1420;51.324;12.344;2023-08-01T10:07:13;18.50;99.90
2825;DHT22;1420;51.324;12.344;2023-08-01T10:09:41;18.30;99.90
2825;DHT22;1420;51.324;12.344;2023-08-01T10:12:08;18.30;99.90
2825;DHT22;1420;51.324;12.344;2023-08-01T10:14:35;18.20;99.90
2825;DHT22;1420;51.324;12.344;2023-08-01T10:17:04;18.20;99.90
2825;DHT22;1420;51.324;12.344;2023-08-01T10:19:32;18.20;99.90
2825;DHT22;1420;51.324;12.344;2023-08-01T10:21:59;18.40;99.90
2825;DHT22;1420;51.324;12.344;2023-08-01T10:24:26;18.40;99.90
2825;DHT22;1420;51.324;12.344;2023-08-01T10:26:53;18.20;99.90
2825;DHT22;1420;51.324;12.344;2023-08-01T10:29:20;18.20;99.90
2825;DHT22;1420;51.324;12.344;2023-08-01T10:31:52;18.10;99.90
2825;DHT22;1420;51.324;12.344;2023-08-01T10:34:18;18.20;99.90
2825;DHT22;1420;51.324;12.344;2023-08-01T10:37:00;18.30;99.90
2825;DHT22;1420;51.324;12.344;2023-08-01T10:39:28;18.40;99.90
2825;DHT22;1420;51.324;12.344;2023-08-01T10:42:00;19.00;99.90
2825;DHT22;1420;51.324;12.344;2023-08-01T10:44:28;19.20;99.90
2825;DHT22;1420;51.324;12.344;2023-08-01T10:46:56;19.40;99.90
2825;DHT22;1420;51.324;12.344;2023-08-01T10:49:34;19.60;99.90
2825;DHT22;1420;51.324;12.344;2023-08-01T10:52:01;19.80;99.90
2825;DHT22;1420;51.324;12.344;2023-08-01T10:54:29;19.80;99.90
2825;DHT22;1420;51.324;12.344;2023-08-01T10:56:56;19.80;99.90
2825;DHT22;1420;51.324;12.344;2023-08-01T10:59:26;19.70;99.90
2825;DHT22;1420;51.324;12.344;2023-08-01T11:01:57;19.80;99.90
2825;DHT22;1420;51.324;12.344;2023-08-01T11:04:22;20.00;99.90
2825;DHT22;1420;51.324;12.344;2023-08-01T11:06:51;20.00;99.90
2825;DHT22;1420;51.324;12.344;2023-08-01T11:09:20;20.00;99.90
2825;DHT22;1420;51.324;12.344;2023-08-01T11:11:48;20.30;99.90
2825;DHT22;1420;51.324;12.344;2023-08-01T11:14:15;20.10;99.90
2825;DHT22;1420;51.324;12.344;2023-08-01T11:16:43;20.20;99.90
2825;DHT22;1420;51.324;12.344;2023-08-01T11:19:21;20.30;99.90
2825;DHT22;1420;51.324;12.344;2023-08-01T11:21:47;20.20;99.90
2825;DHT22;1420;51.324;12.344;2023-08-01T11:24:16;20.30;99.90
2825;DHT22;1420;51.324;12.344;2023-08-01T11:26:43;20.30;99.90
2825;DHT22;1420;51.324;12.344;2023-08-01T11:29:11;20.40;99.90
2825;DHT22;1420;51.324;12.344;2023-08-01T11:31:39;20.80;99.90
2825;DHT22;1420;51.324;12.344;2023-08-01T11:34:08;20.50;99.90
2825;DHT22;1420;51.324;12.344;2023-08-01T11:36:35;20.50;99.90
2825;DHT22;1420;51.324;12.344;2023-08-01T11:39:02;20.40;99.90
2825;DHT22;1420;51.324;12.344;2023-08-01T11:41:29;20.70;99.90
2825;DHT22;1420;51.324;12.344;2023-08-01T11:44:01;21.00;99.90
2825;DHT22;1420;51.324;12.344;2023-08-01T11:46:30;21.00;99.90
2825;DHT22;1420;51.324;12.344;2023-08-01T11:48:53;20.70;99.90
2825;DHT22;1420;51.324;12.344;2023-08-01T11:51:20;20.60;99.90
2825;DHT22;1420;51.324;12.344;2023-08-01T11:53:57;21.00;99.90
2825;DHT22;1420;51.324;12.344;2023-08-01T11:56:21;21.00;99.90
2825;DHT22;1420;51.324;12.344;2023-08-01T11:58:49;21.00;99.90
2825;DHT22;1420;51.324;12.344;2023-08-01T12:01:16;21.00;99.90
2825;DHT22;1420;51.324;12.344;2023-08-01T12:03:46;21.00;99.90
2825;DHT22;1420;51.324;12.344;2023-08-01T12:06:13;21.10;99.90
2825;DHT22;1420;51.324;12.344;2023-08-01T12:08:43;21.00;99.90
2825;DHT22;1420;51.324;12.344;2023-08-01T12:11:20;21.20;99.90
2825;DHT22;1420;51.324;12.344;2023-08-01T12:13:46;21.40;99.90
2825;DHT22;1420;51.324;12.344;2023-08-01T12:16:14;21.70;99.90
2825;DHT22;1420;51.324;12.344;2023-08-01T12:18:42;21.70;99.90
2825;DHT22;1420;51.324;12.344;2023-08-01T12:21:09;22.00;99.90
2825;DHT22;1420;51.324;12.344;2023-08-01T12:23:36;22.10;99.90
2825;DHT22;1420;51.324;12.344;2023-08-01T12:26:04;22.00;99.90
2825;DHT22;1420;51.324;12.344;2023-08-01T12:28:31;21.90;99.90
2825;DHT22;1420;51.324;12.344;2023-08-01T12:30:59;21.50;99.90
2825;DHT22;1420;51.324;12.344;2023-08-01T12:33:26;21.90;99.90
2825;DHT22;1420;51.324;12.344;2023-08-01T12:35:54;21.70;99.90
2825;DHT22;1420;51.324;12.344;2023-08-01T12:38:21;21.70;99.90
2825;DHT22;1420;51.324;12.344;2023-08-01T12:40:48;22.20;99.90
2825;DHT22;1420;51.324;12.344;2023-08-01T12:43:16;22.10;99.90
2825;DHT22;1420;51.324;12.344;2023-08-01T12:45:44;22.60;99.90
2825;DHT22;1420;51.324;12.344;2023-08-01T12:48:12;22.90;99.90
2825;DHT22;1420;51.324;12.344;2023-08-01T12:50:42;22.90;99.90
2825;DHT22;1420;51.324;12.344;2023-08-01T12:53:06;22.70;99.90
2825;DHT22;1420;51.324;12.344;2023-08-01T12:55:33;22.70;99.90
2825;DHT22;1420;51.324;12.344;2023-08-01T12:58:01;22.90;99.90
2825;DHT22;1420;51.324;12.344;2023-08-01T13:00:29;22.80;99.90
2825;DHT22;1420;51.324;12.344;2023-08-01T13:02:56;22.70;99.90
2825;DHT22;1420;51.324;12.344;2023-08-01T13:05:23;22.70;99.90
2825;DHT22;1420;51.324;12.344;2023-08-01T13:07:51;22.90;99.90
2825;DHT22;1420;51.324;12.344;2023-08-01T13:10:19;22.80;99.90
2825;DHT22;1420;51.324;12.344;2023-08-01T13:12:46;22.70;99.90
2825;DHT22;1420;51.324;12.344;2023-08-01T13:15:13;22.60;99.10
2825;DHT22;1420;51.324;12.344;2023-08-01T13:17:40;22.40;99.90
2825;DHT22;1420;51.324;12.344;2023-08-01T13:20:08;22.50;99.90
2825;DHT22;1420;51.324;12.344;2023-08-01T13:22:35;22.30;97.60
2825;DHT22;1420;51.324;12.344;2023-08-01T13:25:02;22.30;97.00
2825;DHT22;1420;51.324;12.344;2023-08-01T13:27:30;22.40;99.70
2825;DHT22;1420;51.324;12.344;2023-08-01T13:29:57;22.50;99.90
2825;DHT22;1420;51.324;12.344;2023-08-01T13:32:24;22.50;99.90
2825;DHT22;1420;51.324;12.344;2023-08-01T13:34:51;22.70;99.70
2825;DHT22;1420;51.324;12.344;2023-08-01T13:37:19;22.70;99.90
2825;DHT22;1420;51.324;12.344;2023-08-01T13:39:46;22.70;97.60
2825;DHT22;1420;51.324;12.344;2023-08-01T13:42:14;22.60;97.30
2825;DHT22;1420;51.324;12.344;2023-08-01T13:44:41;22.70;99.90
2825;DHT22;1420;51.324;12.344;2023-08-01T13:47:08;23.10;98.90
2825;DHT22;1420;51.324;12.344;2023-08-01T13:49:36;22.80;97.00
2825;DHT22;1420;51.324;12.344;2023-08-01T13:52:04;22.80;97.40
2825;DHT22;1420;51.324;12.344;2023-08-01T13:54:31;22.60;97.20
2825;DHT22;1420;51.324;12.344;2023-08-01T13:56:58;22.40;99.50
2825;DHT22;1420;51.324;12.344;2023-08-01T13:59:25;22.20;99.90
2825;DHT22;1420;51.324;12.344;2023-08-01T14:01:53;22.10;99.90
2825;DHT22;1420;51.324;12.344;2023-08-01T14:04:21;20.80;99.90
2825;DHT22;1420;51.324;12.344;2023-08-01T14:06:49;19.60;99.90
2825;DHT22;1420;51.324;12.344;2023-08-01T14:09:16;19.50;99.90
2825;DHT22;1420;51.324;12.344;2023-08-01T14:11:43;18.80;99.90
2825;DHT22;1420;51.324;12.344;2023-08-01T14:14:10;18.40;99.90
2825;DHT22;1420;51.324;12.344;2023-08-01T14:16:37;18.20;99.90
2825;DHT22;1420;51.324;12.344;2023-08-01T14:19:05;18.60;99.90
2825;DHT22;1420;51.324;12.344;2023-08-01T14:21:33;18.80;99.90
2825;DHT22;1420;51.324;12.344;2023-08-01T14:23:59;18.80;99.90
2825;DHT22;1420;51.324;12.344;2023-08-01T14:26:26;19.10;99.90
2825;DHT22;1420;51.324;12.344;2023-08-01T14:28:53;19.30;99.90
2825;DHT22;1420;51.324;12.344;2023-08-01T14:31:21;19.70;99.90
2825;DHT22;1420;51.324;12.344;2023-08-01T14:33:48;19.90;99.90
2825;DHT22;1420;51.324;12.344;2023-08-01T14:36:15;19.90;99.90
2825;DHT22;1420;51.324;12.344;2023-08-01T14:38:42;20.20;99.90
2825;DHT22;1420;51.324;12.344;2023-08-01T14:41:09;20.20;99.90
2825;DHT22;1420;51.324;12.344;2023-08-01T14:43:37;20.30;99.90
2825;DHT22;1420;51.324;12.344;2023-08-01T14:46:04;20.40;99.90
2825;DHT22;1420;51.324;12.344;2023-08-01T14:48:31;20.40;99.90
2825;DHT22;1420;51.324;12.344;2023-08-01T14:50:58;20.40;99.90
2825;DHT22;1420;51.324;12.344;2023-08-01T14:53:25;20.40;99.90
2825;DHT22;1420;51.324;12.344;2023-08-01T14:55:56;20.30;99.90
2825;DHT22;1420;51.324;12.344;2023-08-01T14:58:23;20.50;99.90
2825;DHT22;1420;51.324;12.344;2023-08-01T15:00:52;20.30;99.90
2825;DHT22;1420;51.324;12.344;2023-08-01T15:03:19;20.30;99.90
2825;DHT22;1420;51.324;12.344;2023-08-01T15:05:46;20.30;99.90
2825;DHT22;1420;51.324;12.344;2023-08-01T15:08:13;20.50;99.90
2825;DHT22;1420;51.324;12.344;2023-08-01T15:10:41;20.30;99.90
2825;DHT22;1420;51.324;12.344;2023-08-01T15:13:09;20.40;99.90
2825;DHT22;1420;51.324;12.344;2023-08-01T15:15:37;20.60;99.90
2825;DHT22;1420;51.324;12.344;2023-08-01T15:18:05;20.60;99.90
2825;DHT22;1420;51.324;12.344;2023-08-01T15:20:33;20.40;99.90
2825;DHT22;1420;51.324;12.344;2023-08-01T15:23:01;20.30;99.90
2825;DHT22;1420;51.324;12.344;2023-08-01T15:25:29;20.40;99.90
2825;DHT22;1420;51.324;12.344;2023-08-01T15:27:57;20.50;99.90
2825;DHT22;1420;51.324;12.344;2023-08-01T15:30:25;20.70;99.90
2825;DHT22;1420;51.324;12.344;2023-08-01T15:32:53;20.80;99.90
2825;DHT22;1420;51.324;12.344;2023-08-01T15:35:25;20.90;99.90
2825;DHT22;1420;51.324;12.344;2023-08-01T15:37:49;20.80;99.90
2825;DHT22;1420;51.324;12.344;2023-08-01T15:40:16;20.80;99.90
2825;DHT22;1420;51.324;12.344;2023-08-01T15:42:44;20.70;99.90
2825;DHT22;1420;51.324;12.344;2023-08-01T15:45:11;20.60;99.90
2825;DHT22;1420;51.324;12.344;2023-08-01T15:47:38;20.60;99.90